Time;durP1;ratioP1;P1;durP2;ratioP2;P2;SDS_P1;SDS_P2;PMS_P1;PMS_P2;Temp;Humidity;BMP_temperature;BMP_pressure;BME280_temperature;BME280_humidity;BME280_pressure;Samples;Min_cycle;Max_cycle;Signal;HPM_P1;HPM_P2
2021/06/28 00:00:21;;;;;;;0.90;0.65;;;24.00;55.10;;;;;;6237494;28;20075;-68
2021/06/28 00:03:22;;;;;;;0.68;0.40;;;23.90;55.00;;;;;;6237379;28;20084;-67
2021/06/28 00:06:23;;;;;;;0.40;0.40;;;23.90;55.00;;;;;;6237344;28;20037;-68
2021/06/28 00:09:23;;;;;;;0.52;0.52;;;23.90;55.00;;;;;;6237551;28;20033;-69
2021/06/28 00:12:24;;;;;;;0.55;0.50;;;24.00;55.10;;;;;;6261532;28;20079;-69
2021/06/28 00:15:37;;;;;;;0.52;0.50;;;24.00;55.10;;;;;;6235940;28;20084;-68
2021/06/28 00:18:38;;;;;;;0.50;0.50;;;23.90;55.00;;;;;;6236045;28;20029;-68
2021/06/28 00:21:39;;;;;;;0.50;0.50;;;23.90;55.00;;;;;;6228235;28;20053;-69
2021/06/28 00:24:39;;;;;;;0.90;0.50;;;23.90;55.00;;;;;;6211184;28;20018;-69
2021/06/28 00:27:42;;;;;;;0.60;0.50;;;23.90;55.00;;;;;;6211042;28;20057;-68
2021/06/28 00:30:44;;;;;;;0.68;0.55;;;23.90;55.00;;;;;;6212398;28;20037;-68
2021/06/28 00:33:45;;;;;;;0.50;0.50;;;23.90;55.00;;;;;;6338308;28;20663;-68
2021/06/28 00:36:46;;;;;;;0.90;0.77;;;23.90;55.00;;;;;;6307472;28;20031;-68
2021/06/28 00:39:46;;;;;;;0.65;0.50;;;23.90;55.00;;;;;;6339278;28;20016;-67
2021/06/28 00:42:48;;;;;;;0.47;0.47;;;24.00;55.10;;;;;;6277122;28;20534;-69
2021/06/28 00:45:49;;;;;;;0.50;0.40;;;23.90;55.00;;;;;;6236702;28;20021;-69
2021/06/28 00:48:49;;;;;;;0.30;0.30;;;23.90;55.00;;;;;;6236474;28;20587;-69
2021/06/28 00:51:50;;;;;;;0.43;0.43;;;23.90;55.00;;;;;;6231038;28;20474;-68
2021/06/28 00:54:50;;;;;;;0.52;0.52;;;23.90;55.00;;;;;;6211759;28;20054;-69
2021/06/28 00:57:52;;;;;;;0.60;0.60;;;24.00;55.10;;;;;;6211855;28;20025;-68
2021/06/28 01:00:52;;;;;;;0.60;0.60;;;23.90;55.00;;;;;;6211628;28;20022;-69
2021/06/28 01:03:53;;;;;;;0.50;0.50;;;23.90;55.00;;;;;;6211406;28;20119;-68
2021/06/28 01:06:55;;;;;;;0.93;0.60;;;23.90;55.00;;;;;;6211744;28;20030;-69
2021/06/28 01:09:56;;;;;;;0.60;0.47;;;23.90;55.00;;;;;;6221289;28;20026;-67
2021/06/28 01:12:57;;;;;;;0.50;0.40;;;24.00;55.10;;;;;;6293835;28;20026;-67
2021/06/28 01:15:58;;;;;;;0.50;0.50;;;23.90;55.00;;;;;;6236156;28;20754;-69
2021/06/28 01:18:59;;;;;;;0.50;0.50;;;23.90;55.00;;;;;;6236162;28;20018;-69
2021/06/28 01:22:03;;;;;;;0.63;0.50;;;23.90;55.00;;;;;;6233867;28;20568;-67
2021/06/28 01:25:07;;;;;;;0.45;0.45;;;24.00;55.10;;;;;;6209878;28;20048;-69
2021/06/28 01:28:07;;;;;;;0.57;0.57;;;23.90;55.00;;;;;;6221473;28;20521;-69
2021/06/28 01:31:11;;;;;;;1.42;0.57;;;24.00;55.10;;;;;;6234347;28;20056;-68
2021/06/28 01:34:12;;;;;;;0.50;0.50;;;23.90;55.00;;;;;;6217649;28;20079;-69
2021/06/28 01:37:24;;;;;;;0.68;0.50;;;23.90;55.00;;;;;;6211536;28;20037;-68
2021/06/28 01:40:24;;;;;;;0.50;0.50;;;23.90;55.00;;;;;;6211607;28;20026;-69
2021/06/28 01:43:25;;;;;;;0.63;0.60;;;23.90;55.00;;;;;;6221491;28;20544;-68
2021/06/28 01:46:26;;;;;;;0.55;0.50;;;23.90;55.00;;;;;;6235609;28;20030;-69
2021/06/28 01:49:27;;;;;;;0.80;0.60;;;23.90;55.00;;;;;;6235301;28;20026;-69
2021/06/28 01:52:27;;;;;;;0.38;0.38;;;23.90;55.00;;;;;;6234621;28;20042;-69
2021/06/28 01:55:28;;;;;;;0.50;0.50;;;23.90;55.10;;;;;;6233844;28;20036;-68
2021/06/28 01:58:30;;;;;;;0.30;0.30;;;23.90;55.00;;;;;;6229478;28;20061;-70
2021/06/28 02:01:30;;;;;;;0.73;0.60;;;23.90;55.00;;;;;;6215075;28;20022;-68
2021/06/28 02:04:32;;;;;;;0.60;0.50;;;23.90;55.00;;;;;;6230355;28;20022;-68
2021/06/28 02:07:33;;;;;;;0.65;0.65;;;23.90;55.70;;;;;;6239937;27;20120;-69
2021/06/28 02:10:36;;;;;;;0.40;0.40;;;23.90;55.00;;;;;;6232132;28;20032;-68
2021/06/28 02:13:37;;;;;;;0.50;0.50;;;24.00;55.10;;;;;;6218911;28;20033;-69
2021/06/28 02:16:42;;;;;;;0.50;0.50;;;23.90;55.10;;;;;;6238579;28;20030;-69
2021/06/28 02:19:46;;;;;;;0.55;0.40;;;23.90;55.00;;;;;;6239729;28;20154;-69
2021/06/28 02:22:48;;;;;;;0.50;0.50;;;23.90;55.00;;;;;;6238138;28;20692;-69
2021/06/28 02:26:10;;;;;;;0.82;0.60;;;24.00;55.10;;;;;;6216035;28;20033;-68
2021/06/28 02:29:11;;;;;;;0.65;0.63;;;23.90;55.10;;;;;;6222707;28;20056;-68
2021/06/28 02:32:12;;;;;;;0.70;0.52;;;23.90;55.00;;;;;;6239677;28;20100;-69
2021/06/28 02:35:13;;;;;;;1.15;0.60;;;23.90;55.00;;;;;;6239104;28;20531;-67
2021/06/28 02:38:14;;;;;;;1.20;0.70;;;23.90;55.00;;;;;;6239546;28;20036;-69
2021/06/28 02:41:17;;;;;;;0.70;0.65;;;23.90;55.00;;;;;;6239157;28;20026;-68
2021/06/28 02:44:19;;;;;;;0.75;0.60;;;23.90;55.00;;;;;;6232022;28;20109;-69
2021/06/28 02:47:19;;;;;;;1.17;0.50;;;23.90;55.80;;;;;;6214668;28;20066;-69
2021/06/28 02:50:20;;;;;;;0.60;0.52;;;23.90;55.00;;;;;;6214786;28;20046;-69
2021/06/28 02:53:22;;;;;;;0.47;0.47;;;23.90;55.10;;;;;;6296156;28;20039;-69
2021/06/28 02:56:22;;;;;;;0.95;0.57;;;23.90;55.10;;;;;;6342927;28;20030;-69
2021/06/28 02:59:23;;;;;;;0.68;0.60;;;23.90;55.00;;;;;;6320299;28;20022;-69
2021/06/28 03:02:24;;;;;;;0.77;0.55;;;23.90;55.00;;;;;;6238936;28;20034;-68
2021/06/28 03:05:25;;;;;;;0.60;0.60;;;23.90;55.10;;;;;;6225226;28;20475;-68
2021/06/28 03:08:26;;;;;;;0.85;0.70;;;23.90;55.00;;;;;;6212738;28;20497;-69
2021/06/28 03:11:26;;;;;;;0.68;0.57;;;23.90;55.00;;;;;;6213105;28;20033;-69
2021/06/28 03:14:27;;;;;;;0.65;0.65;;;23.90;55.00;;;;;;6214147;28;20023;-70
2021/06/28 03:17:27;;;;;;;0.38;0.38;;;24.00;55.10;;;;;;6238345;28;20059;-69
2021/06/28 03:20:28;;;;;;;0.70;0.60;;;23.90;55.00;;;;;;6238596;28;20047;-70
2021/06/28 03:23:29;;;;;;;0.80;0.60;;;23.90;55.00;;;;;;6238928;28;20022;-67
2021/06/28 03:26:29;;;;;;;0.70;0.60;;;23.90;55.10;;;;;;6223945;28;20045;-69
2021/06/28 03:29:30;;;;;;;0.50;0.50;;;23.90;55.00;;;;;;6213984;28;20022;-69
2021/06/28 03:32:31;;;;;;;0.50;0.50;;;23.90;55.00;;;;;;6235137;28;20029;-69
2021/06/28 03:35:32;;;;;;;0.70;0.70;;;23.90;55.00;;;;;;6238155;28;20030;-69
2021/06/28 03:38:34;;;;;;;0.40;0.40;;;23.90;55.10;;;;;;6237345;28;20037;-70
2021/06/28 03:41:35;;;;;;;0.50;0.50;;;24.00;55.20;;;;;;6238383;28;20104;-65
2021/06/28 03:44:35;;;;;;;0.40;0.40;;;23.90;55.10;;;;;;6238744;28;20030;-69
2021/06/28 03:47:36;;;;;;;0.82;0.60;;;23.90;55.10;;;;;;6236738;28;20442;-69
2021/06/28 03:50:37;;;;;;;0.60;0.50;;;23.90;55.10;;;;;;6234145;28;20030;-68
2021/06/28 03:53:39;;;;;;;0.40;0.40;;;23.90;55.10;;;;;;6212223;28;20120;-69
2021/06/28 03:56:39;;;;;;;0.60;0.60;;;23.90;55.10;;;;;;6225617;28;20067;-69
2021/06/28 04:03:38;;;;;;;1.15;0.50;;;23.90;55.00;;;;;;6238383;28;20025;-69
2021/06/28 04:06:39;;;;;;;0.60;0.60;;;23.90;55.10;;;;;;6226319;28;20030;-68
2021/06/28 04:09:39;;;;;;;0.70;0.60;;;23.90;55.00;;;;;;6213447;28;20525;-67
2021/06/28 04:12:40;;;;;;;0.68;0.60;;;24.00;55.20;;;;;;6211702;28;20034;-69
2021/06/28 04:15:41;;;;;;;0.60;0.50;;;23.90;55.10;;;;;;6213514;28;20032;-68
2021/06/28 04:18:41;;;;;;;0.55;0.55;;;23.90;55.10;;;;;;6235703;28;20037;-69
2021/06/28 04:21:42;;;;;;;0.60;0.55;;;24.00;55.20;;;;;;6263338;28;20546;-68
2021/06/28 04:24:42;;;;;;;0.85;0.70;;;23.90;55.10;;;;;;6339675;28;20020;-68
2021/06/28 04:27:43;;;;;;;0.70;0.60;;;23.90;55.10;;;;;;6269077;28;20034;-68
2021/06/28 04:30:44;;;;;;;0.52;0.40;;;23.90;55.10;;;;;;6211754;28;20022;-69
2021/06/28 04:33:45;;;;;;;0.45;0.45;;;23.90;55.10;;;;;;6234115;28;20025;-67
2021/06/28 04:36:45;;;;;;;0.63;0.63;;;24.00;55.20;;;;;;6233080;28;20475;-69
2021/06/28 04:39:46;;;;;;;0.50;0.50;;;23.90;55.10;;;;;;6211702;28;20026;-69
2021/06/28 04:42:47;;;;;;;0.57;0.57;;;23.90;55.10;;;;;;6211384;28;20070;-69
2021/06/28 04:45:48;;;;;;;0.50;0.50;;;23.90;55.10;;;;;;6212769;28;20030;-70
2021/06/28 04:48:48;;;;;;;0.95;0.70;;;23.90;55.10;;;;;;6316017;28;20541;-69
2021/06/28 04:51:49;;;;;;;0.50;0.50;;;23.90;55.10;;;;;;6324962;28;20037;-68
2021/06/28 04:54:50;;;;;;;0.90;0.50;;;23.90;55.10;;;;;;6210730;28;20122;-68
2021/06/28 04:57:51;;;;;;;0.60;0.60;;;23.90;55.10;;;;;;6222627;28;20030;-70
2021/06/28 05:00:52;;;;;;;0.50;0.50;;;23.90;55.10;;;;;;6233618;28;20081;-67
2021/06/28 05:03:54;;;;;;;0.60;0.60;;;23.90;55.10;;;;;;6212657;28;20522;-68
2021/06/28 05:06:54;;;;;;;0.50;0.50;;;23.90;55.10;;;;;;6212460;28;20030;-69
2021/06/28 05:09:56;;;;;;;0.60;0.60;;;23.90;55.10;;;;;;6233123;28;20029;-69
2021/06/28 05:12:57;;;;;;;0.88;0.68;;;23.90;55.10;;;;;;6212039;28;20050;-69
2021/06/28 05:16:01;;;;;;;0.50;0.50;;;24.00;55.20;;;;;;6212065;28;20033;-69
2021/06/28 05:19:05;;;;;;;0.50;0.50;;;23.90;55.10;;;;;;6196559;28;20022;-69
2021/06/28 05:22:05;;;;;;;0.50;0.50;;;23.90;55.10;;;;;;6327639;28;20031;-67
2021/06/28 05:25:08;;;;;;;0.63;0.60;;;24.00;55.20;;;;;;6246382;28;20049;-69
2021/06/28 05:28:08;;;;;;;0.50;0.50;;;23.90;55.10;;;;;;6236717;28;20432;-69
2021/06/28 05:31:09;;;;;;;0.47;0.47;;;23.90;55.10;;;;;;6233271;28;20049;-69
2021/06/28 05:34:10;;;;;;;0.73;0.60;;;23.90;55.10;;;;;;6233593;28;20604;-69
2021/06/28 05:37:11;;;;;;;0.60;0.52;;;23.90;55.10;;;;;;6234744;28;20033;-69
2021/06/28 05:40:12;;;;;;;0.52;0.52;;;23.90;55.10;;;;;;6235716;28;20070;-68
2021/06/28 05:43:12;;;;;;;1.38;0.80;;;23.90;55.10;;;;;;6235540;28;20023;-69
2021/06/28 05:46:13;;;;;;;1.70;0.80;;;23.90;55.10;;;;;;6234123;28;20026;-69
2021/06/28 05:49:14;;;;;;;0.80;0.50;;;23.90;55.10;;;;;;6233806;28;20033;-69
2021/06/28 05:52:18;;;;;;;1.02;0.70;;;23.90;55.10;;;;;;6235635;28;20025;-70
2021/06/28 05:55:19;;;;;;;0.73;0.60;;;23.90;55.10;;;;;;6224681;28;20109;-68
2021/06/28 05:58:24;;;;;;;0.60;0.60;;;24.00;55.20;;;;;;6234512;28;20553;-70
2021/06/28 06:01:24;;;;;;;0.88;0.50;;;23.90;55.10;;;;;;6210823;28;20018;-70
2021/06/28 06:04:26;;;;;;;1.05;0.70;;;23.90;55.10;;;;;;6214283;28;20072;-69
2021/06/28 06:07:26;;;;;;;0.60;0.60;;;23.90;55.10;;;;;;6208675;28;20615;-69
2021/06/28 06:10:27;;;;;;;0.82;0.60;;;23.90;55.10;;;;;;6224209;28;20197;-70
2021/06/28 06:13:28;;;;;;;1.27;0.60;;;23.90;55.10;;;;;;6215590;28;20015;-70
2021/06/28 06:16:29;;;;;;;0.73;0.60;;;23.90;55.10;;;;;;6235286;28;20029;-70
2021/06/28 06:19:29;;;;;;;0.45;0.45;;;23.90;55.10;;;;;;6235116;28;20054;-70
2021/06/28 06:22:30;;;;;;;6.63;0.60;;;23.90;55.10;;;;;;6234336;28;20432;-71
2021/06/28 06:25:31;;;;;;;5.18;0.68;;;24.00;56.90;;;;;;6249031;28;20023;-71
2021/06/28 06:28:31;;;;;;;0.95;0.50;;;24.00;56.60;;;;;;6270228;28;20719;-70
2021/06/28 06:31:32;;;;;;;0.50;0.40;;;24.00;56.30;;;;;;6235519;28;20041;-71
2021/06/28 06:34:33;;;;;;;0.50;0.50;;;24.00;55.80;;;;;;6235167;28;20022;-70
2021/06/28 06:37:33;;;;;;;0.60;0.60;;;24.00;55.60;;;;;;6235024;28;20040;-71
2021/06/28 06:40:34;;;;;;;0.93;0.60;;;24.10;55.60;;;;;;6235565;28;20505;-72
2021/06/28 06:43:35;;;;;;;1.95;0.93;;;24.10;55.50;;;;;;6207202;28;20014;-71
2021/06/28 06:46:36;;;;;;;0.80;0.55;;;24.00;55.40;;;;;;6235072;28;20026;-68
2021/06/28 06:49:36;;;;;;;0.80;0.57;;;24.10;55.50;;;;;;6221200;28;20029;-69
2021/06/28 06:52:38;;;;;;;2.35;0.90;;;24.00;55.40;;;;;;6238278;28;20054;-72
2021/06/28 06:55:39;;;;;;;0.98;0.55;;;24.00;55.40;;;;;;6237129;28;20038;-73
2021/06/28 06:58:39;;;;;;;1.80;0.80;;;24.00;55.80;;;;;;6314731;28;20112;-72
2021/06/28 07:01:42;;;;;;;0.98;0.80;;;24.00;55.60;;;;;;6231059;28;20024;-71
2021/06/28 07:04:42;;;;;;;0.50;0.50;;;24.00;55.60;;;;;;6217021;28;20034;-74
2021/06/28 07:07:44;;;;;;;3.38;0.68;;;24.00;55.60;;;;;;6240056;28;20721;-68
2021/06/28 07:10:45;;;;;;;1.20;0.70;;;24.00;55.80;;;;;;6229160;28;20497;-68
2021/06/28 07:13:50;;;;;;;1.60;0.73;;;24.00;55.70;;;;;;6212854;28;20652;-66
2021/06/28 07:16:50;;;;;;;;;;;24.00;55.80;;;;;;6231912;28;20061;-69
2021/06/28 07:19:51;;;;;;;1.67;0.80;;;24.00;55.80;;;;;;6239252;28;20339;-73
2021/06/28 07:22:53;;;;;;;0.57;0.57;;;24.00;55.80;;;;;;6238955;28;20068;-69
2021/06/28 07:25:54;;;;;;;2.08;0.70;;;24.00;55.70;;;;;;6238891;28;20098;-69
2021/06/28 07:28:55;;;;;;;1.40;1.00;;;24.00;55.70;;;;;;6249419;28;20030;-71
2021/06/28 07:31:56;;;;;;;1.00;0.60;;;24.00;55.80;;;;;;6278496;28;20109;-72
2021/06/28 07:34:57;;;;;;;1.92;0.70;;;24.00;55.90;;;;;;6237700;28;20021;-72
2021/06/28 07:37:57;;;;;;;4.85;0.80;;;24.10;56.40;;;;;;6239869;28;20038;-70
2021/06/28 07:40:58;;;;;;;3.95;0.80;;;24.10;56.50;;;;;;6227468;28;20025;-71
2021/06/28 07:44:00;;;;;;;1.67;0.70;;;24.10;56.30;;;;;;6297046;28;20084;-71
2021/06/28 07:47:02;;;;;;;1.73;0.70;;;24.00;56.00;;;;;;6283408;27;20025;-71
2021/06/28 07:50:04;;;;;;;1.60;0.60;;;24.00;56.00;;;;;;6239121;28;20060;-71
2021/06/28 07:53:05;;;;;;;0.98;0.82;;;24.00;55.90;;;;;;6236430;28;20087;-71
2021/06/28 07:56:14;;;;;;;1.35;0.43;;;24.00;55.80;;;;;;6212118;28;20037;-69
2021/06/28 07:59:15;;;;;;;1.05;0.60;;;24.00;55.80;;;;;;6225860;28;20040;-71
2021/06/28 08:02:16;;;;;;;1.27;0.70;;;24.00;55.80;;;;;;6234483;28;20501;-71
2021/06/28 08:05:18;;;;;;;1.10;0.60;;;24.00;55.80;;;;;;6342818;28;20072;-72
2021/06/28 08:08:19;;;;;;;1.52;0.77;;;24.00;55.80;;;;;;6242341;28;20172;-72
2021/06/28 08:11:22;;;;;;;1.65;0.50;;;24.00;55.80;;;;;;6318674;28;20024;-69
2021/06/28 08:14:23;;;;;;;0.90;0.60;;;24.00;55.70;;;;;;6344368;28;20027;-72
2021/06/28 08:17:23;;;;;;;1.13;0.63;;;24.00;55.70;;;;;;6271439;28;20332;-72
2021/06/28 08:20:24;;;;;;;1.60;0.60;;;24.00;55.70;;;;;;6214788;28;20030;-69
2021/06/28 08:23:25;;;;;;;0.80;0.63;;;24.00;55.70;;;;;;6214110;28;20026;-69
2021/06/28 08:26:25;;;;;;;1.67;0.70;;;24.00;55.70;;;;;;6221214;28;20350;-71
2021/06/28 08:29:26;;;;;;;2.20;0.70;;;24.00;55.60;;;;;;6219250;28;20534;-71
2021/06/28 08:32:27;;;;;;;0.98;0.65;;;24.00;55.60;;;;;;6234758;28;20396;-70
2021/06/28 08:35:27;;;;;;;0.50;0.50;;;24.00;55.60;;;;;;6344531;28;20030;-69
2021/06/28 08:38:28;;;;;;;1.75;0.90;;;24.00;55.60;;;;;;6251392;28;20060;-70
2021/06/28 08:41:29;;;;;;;1.00;0.60;;;24.00;55.60;;;;;;6215566;28;20587;-70
2021/06/28 08:44:29;;;;;;;1.02;0.60;;;24.00;55.60;;;;;;6318813;28;20041;-71
2021/06/28 08:47:31;;;;;;;1.48;0.73;;;24.00;55.60;;;;;;6309039;28;20029;-71
2021/06/28 08:50:35;;;;;;;1.17;0.50;;;24.00;55.60;;;;;;6313811;28;20026;-71
2021/06/28 08:53:35;;;;;;;1.52;0.68;;;24.00;55.60;;;;;;6248512;28;20054;-71
2021/06/28 08:56:39;;;;;;;0.88;0.70;;;24.00;55.60;;;;;;6217391;28;20171;-71
2021/06/28 08:59:42;;;;;;;1.63;0.75;;;24.00;55.60;;;;;;6294609;28;20095;-71
2021/06/28 09:02:51;;;;;;;0.60;0.47;;;24.00;56.30;;;;;;6222629;28;20053;-71
2021/06/28 09:06:03;;;;;;;1.02;0.52;;;24.00;55.60;;;;;;6342573;28;20034;-70
2021/06/28 09:09:11;;;;;;;2.60;0.73;;;24.00;55.60;;;;;;6245873;28;20030;-71
2021/06/28 09:12:16;;;;;;;0.77;0.57;;;24.00;55.60;;;;;;6214495;28;20604;-70
2021/06/28 09:15:35;;;;;;;1.17;0.60;;;24.00;55.60;;;;;;6215150;28;20113;-71
2021/06/28 09:18:36;;;;;;;0.80;0.60;;;24.00;55.60;;;;;;6233303;28;20479;-71
2021/06/28 09:21:42;;;;;;;1.17;0.80;;;24.00;55.60;;;;;;6214358;28;20033;-70
2021/06/28 09:24:49;;;;;;;0.50;0.50;;;24.00;55.60;;;;;;6252399;28;20033;-70
2021/06/28 09:27:50;;;;;;;1.05;0.52;;;24.00;55.60;;;;;;6214115;28;20530;-70
2021/06/28 09:30:54;;;;;;;1.50;0.60;;;24.00;55.60;;;;;;6210748;28;20034;-70
2021/06/28 09:34:12;;;;;;;0.70;0.57;;;24.00;55.60;;;;;;6280552;28;20019;-70
2021/06/28 09:37:14;;;;;;;0.80;0.60;;;24.00;55.60;;;;;;6340452;28;20072;-70
2021/06/28 09:40:24;;;;;;;1.05;0.50;;;24.00;55.60;;;;;;6305393;28;20023;-70
2021/06/28 09:43:26;;;;;;;1.10;0.50;;;24.00;55.60;;;;;;6300729;28;20029;-70
2021/06/28 09:46:28;;;;;;;0.77;0.68;;;24.00;55.60;;;;;;6213956;28;20095;-71
2021/06/28 09:49:28;;;;;;;0.77;0.55;;;24.00;55.60;;;;;;6283158;28;20043;-71
2021/06/28 09:52:36;;;;;;;1.25;0.50;;;24.00;55.60;;;;;;6332678;28;20129;-72
2021/06/28 09:55:39;;;;;;;1.48;0.85;;;24.00;55.60;;;;;;6213973;28;20378;-71
2021/06/28 09:58:39;;;;;;;0.68;0.57;;;24.00;55.60;;;;;;6214003;28;20092;-71
2021/06/28 10:01:40;;;;;;;0.65;0.60;;;24.00;55.50;;;;;;6238507;28;20095;-71
2021/06/28 10:05:01;;;;;;;3.55;0.90;;;24.00;55.60;;;;;;6238319;28;20018;-71
2021/06/28 10:08:02;;;;;;;0.50;0.50;;;24.00;55.60;;;;;;6237193;28;20033;-71
2021/06/28 10:11:26;;;;;;;1.15;0.52;;;24.00;55.60;;;;;;6238316;28;20071;-71
2021/06/28 10:14:26;;;;;;;9.32;3.13;;;24.00;55.80;;;;;;6262813;28;20024;-71
2021/06/28 10:17:28;;;;;;;13.15;4.45;;;24.00;55.90;;;;;;6343485;28;20019;-70
2021/06/28 10:20:33;;;;;;;10.45;4.10;;;24.00;55.80;;;;;;6260780;28;20018;-71
2021/06/28 10:23:35;;;;;;;11.23;4.38;;;24.00;55.70;;;;;;6221831;28;20030;-70
2021/06/28 10:26:36;;;;;;;9.20;4.20;;;24.00;55.70;;;;;;6217834;28;20060;-70
2021/06/28 10:29:37;;;;;;;9.32;3.70;;;24.00;55.70;;;;;;6216304;28;20022;-70
2021/06/28 10:32:39;;;;;;;12.30;5.28;;;24.00;55.70;;;;;;6200727;28;20026;-70
2021/06/28 10:35:41;;;;;;;26.27;9.98;;;24.00;55.60;;;;;;6211778;28;20026;-70
2021/06/28 10:38:49;;;;;;;54.55;20.73;;;24.00;55.70;;;;;;6217344;28;20029;-71
2021/06/28 10:41:55;;;;;;;19.48;7.18;;;24.00;55.60;;;;;;6215434;28;20029;-70
2021/06/28 10:44:55;;;;;;;32.58;12.52;;;24.00;55.60;;;;;;6238863;28;20515;-70
2021/06/28 10:48:11;;;;;;;33.40;12.80;;;24.00;55.60;;;;;;6223430;28;20030;-71
2021/06/28 10:51:12;;;;;;;26.27;10.70;;;24.00;55.60;;;;;;6330148;28;20042;-71
2021/06/28 10:54:18;;;;;;;27.40;10.73;;;24.00;55.60;;;;;;6327377;28;20109;-69
2021/06/28 10:57:19;;;;;;;28.63;11.50;;;24.00;55.60;;;;;;6243057;28;20481;-68
2021/06/28 11:00:57;;;;;;;36.60;14.43;;;24.00;55.60;;;;;;6297744;28;20024;-69
2021/06/28 11:04:06;;;;;;;30.77;12.30;;;24.00;55.60;;;;;;6346832;28;20036;-69
2021/06/28 11:07:12;;;;;;;39.08;15.40;;;24.00;55.60;;;;;;6347109;27;20069;-68
2021/06/28 11:10:33;;;;;;;37.47;15.07;;;24.00;55.60;;;;;;6322219;28;20044;-69
2021/06/28 11:13:39;;;;;;;38.10;14.52;;;24.00;55.60;;;;;;6346780;28;20648;-69
2021/06/28 11:16:40;;;;;;;37.53;14.95;;;24.00;55.60;;;;;;6346809;28;20107;-69
2021/06/28 11:19:58;;;;;;;33.47;14.05;;;24.00;55.60;;;;;;6346310;28;20023;-69
2021/06/28 11:23:13;;;;;;;36.95;14.45;;;24.00;55.60;;;;;;6218411;28;20101;-69
2021/06/28 11:26:31;;;;;;;;;;;24.00;55.60;;;;;;6216459;28;20033;-69
2021/06/28 11:29:52;;;;;;;39.30;16.05;;;24.00;55.60;;;;;;6215758;28;19960;-69
2021/06/28 11:33:09;;;;;;;39.10;15.23;;;24.00;55.60;;;;;;6212596;28;20074;-69
2021/06/28 11:36:22;;;;;;;38.35;16.08;;;24.00;55.60;;;;;;6240345;28;20033;-70
2021/06/28 11:39:26;;;;;;;37.40;16.40;;;24.00;55.60;;;;;;6241756;28;20436;-69
2021/06/28 11:42:33;;;;;;;40.85;17.10;;;24.00;55.60;;;;;;6220160;28;20075;-69
2021/06/28 11:45:48;;;;;;;39.10;17.00;;;24.00;55.60;;;;;;6220560;28;20037;-69
2021/06/28 11:49:07;;;;;;;42.08;17.20;;;24.00;55.60;;;;;;6240486;28;20026;-69
2021/06/28 11:52:15;;;;;;;39.15;15.30;;;24.00;55.60;;;;;;6240771;28;20055;-69
2021/06/28 11:55:16;;;;;;;37.47;15.90;;;24.00;55.60;;;;;;6230098;28;20025;-70
2021/06/28 11:58:22;;;;;;;40.85;17.60;;;24.00;55.60;;;;;;6216376;28;20032;-70
2021/06/28 12:01:26;;;;;;;43.13;17.02;;;24.00;55.60;;;;;;6214799;28;20505;-69
2021/06/28 12:04:36;;;;;;;37.47;15.70;;;24.00;55.60;;;;;;6216229;28;20083;-69
2021/06/28 12:07:42;;;;;;;37.25;16.45;;;24.00;55.60;;;;;;6216420;28;20034;-70
2021/06/28 12:10:57;;;;;;;32.40;14.93;;;24.00;55.60;;;;;;6256287;28;20110;-70
2021/06/28 12:13:58;;;;;;;38.28;17.23;;;24.00;55.60;;;;;;6239400;28;20029;-70
2021/06/28 12:17:06;;;;;;;40.05;16.58;;;24.00;55.60;;;;;;6230418;28;20029;-70
2021/06/28 12:20:08;;;;;;;41.53;17.27;;;24.00;55.60;;;;;;6308549;28;20446;-70
2021/06/28 12:23:10;;;;;;;39.05;16.75;;;24.00;55.50;;;;;;6343931;28;20020;-70
2021/06/28 12:26:12;;;;;;;39.22;16.58;;;24.00;55.50;;;;;;6330214;28;20023;-69
2021/06/28 12:29:26;;;;;;;37.38;15.88;;;24.00;55.60;;;;;;6215413;28;20237;-69
2021/06/28 12:32:34;;;;;;;39.17;16.60;;;24.00;55.60;;;;;;6214457;28;20048;-69
2021/06/28 12:35:35;;;;;;;41.53;17.27;;;24.00;55.60;;;;;;6214517;28;20036;-70
2021/06/28 12:38:36;;;;;;;36.80;15.68;;;24.00;55.60;;;;;;6324229;28;20477;-70
2021/06/28 12:41:37;;;;;;;34.17;15.73;;;24.00;55.60;;;;;;6341923;28;20027;-69
2021/06/28 12:44:38;;;;;;;34.22;15.00;;;24.00;55.60;;;;;;6342725;28;20020;-69
2021/06/28 12:47:47;;;;;;;38.30;15.43;;;24.00;55.60;;;;;;6283181;28;20070;-69
2021/06/28 12:50:54;;;;;;;33.92;15.27;;;24.00;55.60;;;;;;6214603;28;20070;-69
2021/06/28 12:53:55;;;;;;;31.38;14.90;;;24.00;55.60;;;;;;6213945;28;20433;-70
2021/06/28 12:56:55;;;;;;;34.05;15.02;;;24.00;55.60;;;;;;6214136;28;20030;-69
2021/06/28 12:59:57;;;;;;;34.58;14.90;;;24.00;55.60;;;;;;6213777;28;20018;-69
2021/06/28 13:03:08;;;;;;;34.70;15.02;;;24.00;55.60;;;;;;6214917;28;20474;-69
2021/06/28 13:06:21;;;;;;;53.47;17.88;;;24.00;55.60;;;;;;6238769;28;20029;-69
2021/06/28 13:09:25;;;;;;;36.60;15.90;;;24.00;56.30;;;;;;6239773;28;20036;-70
2021/06/28 13:12:27;;;;;;;38.17;16.10;;;24.00;56.20;;;;;;6264380;28;20067;-69
2021/06/28 13:15:29;;;;;;;34.60;14.68;;;24.00;56.10;;;;;;6238478;28;20386;-69
2021/06/28 13:18:29;;;;;;;31.60;14.85;;;24.00;56.10;;;;;;6239914;28;20036;-69
2021/06/28 13:21:33;;;;;;;30.17;14.20;;;24.00;56.00;;;;;;6239625;28;20065;-69
2021/06/28 13:24:36;;;;;;;32.40;14.82;;;24.00;55.90;;;;;;6239432;28;20025;-69
2021/06/28 13:27:37;;;;;;;32.92;14.90;;;24.00;55.80;;;;;;6237661;28;20026;-69
2021/06/28 13:30:37;;;;;;;33.85;16.23;;;24.00;55.80;;;;;;6213617;28;20064;-69
2021/06/28 13:33:38;;;;;;;29.67;14.20;;;24.00;55.80;;;;;;6214720;28;20048;-69
2021/06/28 13:36:40;;;;;;;28.23;13.63;;;24.00;55.80;;;;;;6213542;28;20026;-69
2021/06/28 13:39:45;;;;;;;31.33;14.30;;;24.00;55.80;;;;;;6214544;28;20441;-69
2021/06/28 13:42:54;;;;;;;32.72;15.40;;;24.00;55.80;;;;;;6215485;28;20014;-69
2021/06/28 13:45:55;;;;;;;30.60;14.38;;;24.00;55.80;;;;;;6239230;28;20037;-69
2021/06/28 13:48:56;;;;;;;32.50;14.50;;;24.00;55.70;;;;;;6332366;28;20020;-69
2021/06/28 13:51:59;;;;;;;29.17;13.90;;;24.00;55.80;;;;;;6342399;28;20111;-69
2021/06/28 13:55:00;;;;;;;29.20;14.02;;;24.00;55.70;;;;;;6323800;28;20396;-70
2021/06/28 13:58:06;;;;;;;29.90;13.35;;;24.00;55.80;;;;;;6342975;28;20012;-69
2021/06/28 14:01:07;;;;;;;29.40;12.05;;;24.00;55.70;;;;;;6243855;28;20029;-69
2021/06/28 14:04:08;;;;;;;25.15;12.40;;;24.00;55.70;;;;;;6241823;28;20534;-69
2021/06/28 14:07:09;;;;;;;24.10;12.18;;;24.00;55.70;;;;;;6243879;28;20030;-69
2021/06/28 14:10:10;;;;;;;24.75;11.80;;;24.00;55.70;;;;;;6226366;28;20522;-69
2021/06/28 14:13:11;;;;;;;23.70;12.05;;;24.00;55.70;;;;;;6218448;28;20025;-69
2021/06/28 14:16:11;;;;;;;26.20;12.13;;;24.00;55.70;;;;;;6218432;28;20030;-69
2021/06/28 14:19:12;;;;;;;24.38;11.93;;;24.00;55.70;;;;;;6257854;28;20106;-69
2021/06/28 14:22:13;;;;;;;25.90;11.30;;;24.00;55.70;;;;;;6345451;28;20092;-69
2021/06/28 14:25:13;;;;;;;20.17;10.60;;;24.00;55.70;;;;;;6266167;28;20026;-69
2021/06/28 14:28:16;;;;;;;22.67;10.93;;;24.00;55.70;;;;;;6218583;28;20135;-69
2021/06/28 14:31:17;;;;;;;20.55;10.90;;;24.00;55.70;;;;;;6216596;28;20159;-70
2021/06/28 14:34:17;;;;;;;23.95;10.88;;;24.00;55.70;;;;;;6284234;28;20038;-69
2021/06/28 14:37:18;;;;;;;21.48;10.13;;;24.00;55.60;;;;;;6217853;28;20037;-69
2021/06/28 14:40:18;;;;;;;22.13;11.05;;;24.00;55.70;;;;;;6269685;28;20030;-69
2021/06/28 14:43:19;;;;;;;21.13;10.68;;;24.00;55.60;;;;;;6216773;28;20026;-69
2021/06/28 14:46:20;;;;;;;23.52;10.88;;;24.00;56.30;;;;;;6217532;28;20034;-69
2021/06/28 14:49:21;;;;;;;22.85;10.68;;;24.00;55.60;;;;;;6217589;28;20159;-69
2021/06/28 14:52:21;;;;;;;20.42;10.25;;;24.00;55.60;;;;;;6221879;28;20428;-69
2021/06/28 14:55:23;;;;;;;20.35;11.02;;;24.00;55.70;;;;;;6233320;28;20037;-69
2021/06/28 14:58:26;;;;;;;20.13;10.20;;;24.00;55.70;;;;;;6253213;28;20052;-69
2021/06/28 15:01:27;;;;;;;19.15;9.98;;;24.00;55.70;;;;;;6236421;28;20405;-69
2021/06/28 15:04:27;;;;;;;19.70;9.60;;;24.00;55.70;;;;;;6295167;28;20026;-69
2021/06/28 15:07:28;;;;;;;19.92;10.27;;;24.00;55.70;;;;;;6228379;28;20034;-69
2021/06/28 15:10:28;;;;;;;18.27;9.88;;;24.00;55.70;;;;;;6308914;28;20026;-69
2021/06/28 15:13:29;;;;;;;21.05;9.55;;;24.00;55.70;;;;;;6253402;28;20038;-69
2021/06/28 15:16:30;;;;;;;18.13;9.02;;;24.00;55.70;;;;;;6275581;28;20509;-69
2021/06/28 15:19:31;;;;;;;20.80;9.70;;;24.00;55.70;;;;;;6298016;28;20046;-69
2021/06/28 15:22:31;;;;;;;20.00;9.90;;;24.00;55.70;;;;;;6228489;28;20022;-69
2021/06/28 15:25:32;;;;;;;17.23;9.25;;;24.00;55.70;;;;;;6309479;28;20482;-69
2021/06/28 15:28:33;;;;;;;18.10;9.10;;;24.00;55.70;;;;;;6252588;28;20055;-69
2021/06/28 15:31:33;;;;;;;14.27;7.97;;;24.00;54.30;;;;;;6276958;28;20030;-69
2021/06/28 15:34:34;;;;;;;18.02;9.15;;;24.00;53.90;;;;;;6215768;28;20129;-66
2021/06/28 15:37:35;;;;;;;18.85;9.25;;;24.00;52.40;;;;;;6215376;28;20117;-69
2021/06/28 15:40:36;;;;;;;16.05;9.07;;;24.00;52.50;;;;;;6215147;28;20471;-69
2021/06/28 15:43:37;;;;;;;16.70;8.32;;;24.00;52.80;;;;;;6219957;28;20071;-68
2021/06/28 15:46:38;;;;;;;13.85;8.05;;;24.00;52.70;;;;;;6274141;28;20015;-69